Friday, December 14, 2018, 5:48 PM GMT
Back to Local

CYQI, Yarmouth, N. S.

Location: , , Canada Lat: 43.833
Local Time: 5:48 PM GMT (17:48 GMT) Lon: -66.083
Time Zone: GMT Elev: 141 ft

Show me the last for .
Show Decoded

2018-12-14 17:00 METAR CYQI 141700Z 25010KT 15SM BKN019 BKN200 02/M02 A3050 RMK SC7CS1 CS TR
                 SLP331 =
2018-12-14 16:00 METAR CYQI 141600Z 25012KT 15SM OVC019 02/M02 A3054 RMK SC8 SLP344 =
2018-12-14 15:00 METAR CYQI 141500Z 23010KT 15SM BKN019 02/M02 A3054 RMK SC7 SLP345 =
2018-12-14 14:00 METAR CYQI 141400Z 24011KT 15SM FEW015 BKN017 BKN100 02/M02 A3055 RMK SF1SC5AC1
                 SF TR AC TR SLP348 =
2018-12-14 13:00 METAR CYQI 141300Z 21006KT 15SM FEW017 FEW100 M01/M04 A3053 RMK SC1AC1 AC TR
                 SLP344 =
2018-12-14 12:00 METAR CYQI 141200Z 22004KT 170V240 15SM FEW022 FEW250 M04/M06 A3053 RMK SC1CS1
                 SC TR CS TR FROIN SLP344 =
2018-12-14 11:00 METAR CYQI 141100Z 24004KT 15SM FEW022 FEW250 M02/M05 A3054 RMK SC1CS1 SC TR CS
                 TR FROIN SLP345 =
2018-12-14 10:00 METAR CYQI 141000Z 26006KT 15SM FEW022 M02/M05 A3054 RMK SC1 SLP346 =
2018-12-14 09:00 METAR CYQI 140900Z 27008KT 15SM BKN024 M00/M05 A3055 RMK SC6 SLP349 =
2018-12-14 08:00 METAR CYQI 140800Z 27009KT 15SM SKC M02/M06 A3055 RMK SLP350 =
2018-12-14 07:00 METAR CYQI 140700Z 27006KT 15SM SKC M03/M07 A3056 RMK SLP353 =
2018-12-14 06:00 METAR CYQI 140600Z 28005KT 15SM SKC M05/M09 A3055 RMK SLP350 =
2018-12-14 05:00 METAR CYQI 140500Z 27004KT 15SM SKC M05/M09 A3054 RMK SLP345 =
2018-12-14 04:00 METAR CYQI 140400Z 29004KT 15SM SKC M06/M10 A3055 RMK SLP351 =
2018-12-14 03:00 METAR CYQI 140300Z VRB02KT 15SM SKC M09/M12 A3055 RMK SLP349 =
2018-12-14 02:00 METAR CYQI 140200Z 31003KT 15SM SKC M06/M11 A3055 RMK SLP349 =
2018-12-14 01:00 METAR CYQI 140100Z 31004KT 15SM SKC M08/M13 A3055 RMK SLP351 =
2018-12-14 00:00 METAR CYQI 140000Z 30005KT 15SM FEW022 M04/M10 A3055 RMK SC1 SC TR SLP351 =
2018-12-13 23:00 METAR CYQI 132300Z 30004KT 15SM FEW022 M08/M13 A3054 RMK SC1 SC TR SLP345 =
2018-12-13 22:00 METAR CYQI 132200Z 33005KT 15SM FEW020 M05/M11 A3053 RMK SC1 SC TR SLP342 =
2018-12-13 21:00 METAR CYQI 132100Z 33004KT 15SM FEW020 M04/M11 A3051 RMK SC1 SC TR SLP336 =
2018-12-13 20:00 METAR CYQI 132000Z 33006KT 15SM SKC M04/M10 A3050 RMK SLP332 =
2018-12-13 19:00 METAR CYQI 131900Z 33010KT 15SM SKC M03/M10 A3048 RMK SLP326 =
2018-12-13 18:00 METAR CYQI 131800Z 33011KT 15SM FEW022 M03/M10 A3046 RMK SC1 SC TR SLP321 =

Support USWX by starting your Amazon purchase here.